Time;durP1;ratioP1;P1;durP2;ratioP2;P2;SDS_P1;SDS_P2;PMS_P1;PMS_P2;Temp;Humidity;BMP_temperature;BMP_pressure;BME280_temperature;BME280_humidity;BME280_pressure;Samples;Min_cycle;Max_cycle;Signal;HPM_P1;HPM_P2
2023/08/12 00:02:12;;;;;;;2.53;1.30;;;;;;;26.56;49.01;101631.72;5034310;28;20057;-56
2023/08/12 00:04:39;;;;;;;2.58;1.45;;;;;;;26.56;48.94;101632.56;5034761;28;20045;-56
2023/08/12 00:07:07;;;;;;;2.67;1.42;;;;;;;26.55;48.70;101633.56;5034435;28;20522;-56
2023/08/12 00:09:34;;;;;;;2.17;1.23;;;;;;;26.56;48.79;101620.84;5034443;28;20045;-56
2023/08/12 00:12:02;;;;;;;1.92;1.17;;;;;;;26.56;48.73;101626.28;5035011;28;20056;-56
2023/08/12 00:14:29;;;;;;;2.22;1.10;;;;;;;26.56;48.87;101643.41;5034616;28;20045;-56
2023/08/12 00:16:56;;;;;;;2.00;1.30;;;;;;;26.56;48.93;101635.28;5034059;28;20050;-57
2023/08/12 00:19:24;;;;;;;2.35;1.52;;;;;;;26.56;48.78;101629.00;5034369;28;20050;-58
2023/08/12 00:21:52;;;;;;;2.60;1.70;;;;;;;26.57;48.86;101628.81;5034075;28;20049;-58
2023/08/12 00:24:20;;;;;;;2.50;1.50;;;;;;;26.56;48.84;101624.41;5034490;28;20045;-58
2023/08/12 00:26:47;;;;;;;2.08;1.10;;;;;;;26.56;48.92;101618.13;5032792;28;20052;-58
2023/08/12 00:29:15;;;;;;;2.30;1.17;;;;;;;26.55;49.01;101624.59;5034500;28;20042;-56
2023/08/12 00:31:42;;;;;;;2.83;1.40;;;;;;;26.56;48.93;101620.84;5034001;28;20057;-56
2023/08/12 00:34:10;;;;;;;3.00;1.27;;;;;;;26.55;49.00;101619.16;5034379;28;20411;-56
2023/08/12 00:36:37;;;;;;;2.13;1.20;;;;;;;26.56;48.97;101618.13;5034428;28;20053;-56
2023/08/12 00:39:06;;;;;;;1.80;1.10;;;;;;;26.56;48.87;101624.41;5033085;28;20061;-58
2023/08/12 00:41:33;;;;;;;2.88;1.73;;;;;;;26.55;48.91;101614.56;5033139;28;20505;-58
2023/08/12 00:44:02;;;;;;;2.22;1.30;;;;;;;26.56;49.06;101616.25;5046521;28;20052;-58
2023/08/12 00:46:29;;;;;;;2.28;1.10;;;;;;;26.57;48.83;101622.53;5051594;28;20053;-58
2023/08/12 00:48:57;;;;;;;2.30;1.55;;;;;;;26.55;48.87;101617.28;5051032;28;20045;-56
2023/08/12 00:51:25;;;;;;;1.75;1.15;;;;;;;26.56;49.11;101621.69;5051588;28;20045;-56
2023/08/12 00:53:52;;;;;;;2.40;1.10;;;;;;;26.56;49.10;101618.13;5050254;28;20123;-56
2023/08/12 00:56:21;;;;;;;2.17;1.17;;;;;;;26.56;49.05;101610.84;5052768;28;20049;-56
2023/08/12 00:58:48;;;;;;;1.77;1.15;;;;;;;26.55;48.78;101611.84;5050816;28;20053;-58
2023/08/12 01:01:17;;;;;;;2.60;1.70;;;;;;;26.56;48.97;101609.97;5052522;28;20064;-58
2023/08/12 01:03:45;;;;;;;2.42;1.40;;;;;;;26.57;48.95;101608.97;5054125;28;20068;-58
2023/08/12 01:06:13;;;;;;;2.60;1.40;;;;;;;26.56;48.88;101605.41;5054924;28;20049;-58
2023/08/12 01:08:40;;;;;;;3.30;1.20;;;;;;;26.56;48.99;101602.69;5056727;28;20045;-58
2023/08/12 01:11:28;;;;;;;2.35;1.30;;;;;;;26.57;48.84;101603.53;5056550;28;20060;-58
2023/08/12 01:14:12;;;;;;;2.20;1.27;;;;;;;26.57;49.06;101609.81;5038135;28;20049;-58
2023/08/12 01:16:46;;;;;;;2.40;1.40;;;;;;;26.56;48.97;101602.69;5038184;28;20049;-58
2023/08/12 01:19:39;;;;;;;2.30;1.23;;;;;;;26.56;49.09;101604.56;5037614;28;20508;-58
2023/08/12 01:22:09;;;;;;;2.25;1.38;;;;;;;26.56;48.96;101599.13;5037482;28;20049;-58
2023/08/12 01:24:39;;;;;;;2.50;1.48;;;;;;;26.55;48.99;101595.56;5037734;28;20045;-58
2023/08/12 01:27:08;;;;;;;2.15;1.20;;;;;;;26.55;49.09;101595.56;5037457;28;20053;-56
2023/08/12 01:29:45;;;;;;;2.35;1.45;;;;;;;26.56;49.20;101593.69;5036851;28;20037;-56
2023/08/12 01:32:48;;;;;;;2.17;1.27;;;;;;;26.55;48.84;101587.41;5036248;28;20053;-56
2023/08/12 01:35:48;;;;;;;2.80;1.50;;;;;;;26.55;48.90;101581.13;5036534;28;20056;-56
2023/08/12 01:38:17;;;;;;;2.50;1.40;;;;;;;26.55;48.82;101587.41;5046127;28;20415;-58
2023/08/12 01:40:46;;;;;;;2.03;1.17;;;;;;;26.55;49.09;101584.69;5042233;28;20049;-58
2023/08/12 01:43:14;;;;;;;2.72;1.27;;;;;;;26.57;48.90;101589.94;5037821;28;20407;-58
2023/08/12 01:45:43;;;;;;;2.58;1.35;;;;;;;26.55;48.97;101587.41;5035718;28;20057;-58
2023/08/12 01:48:11;;;;;;;2.67;1.02;;;;;;;26.56;49.09;101580.13;5036095;28;20072;-56
2023/08/12 01:50:38;;;;;;;2.95;1.23;;;;;;;26.56;48.92;101583.69;5037857;28;20050;-56
2023/08/12 01:53:06;;;;;;;2.15;1.27;;;;;;;26.56;49.11;101589.09;5036732;28;20056;-56
2023/08/12 01:55:33;;;;;;;2.05;1.20;;;;;;;26.57;48.97;101589.94;5036851;28;20045;-56
2023/08/12 01:58:00;;;;;;;2.50;1.42;;;;;;;26.56;49.05;101588.25;5041944;28;20048;-58
2023/08/12 02:00:28;;;;;;;2.08;1.20;;;;;;;26.56;48.81;101586.38;5054510;28;20056;-58
2023/08/12 02:02:55;;;;;;;2.47;1.77;;;;;;;26.56;49.06;101586.38;5054823;28;20052;-58
2023/08/12 02:05:23;;;;;;;2.00;1.30;;;;;;;26.56;49.14;101583.69;5054149;28;20049;-58
2023/08/12 02:07:50;;;;;;;2.55;1.65;;;;;;;26.56;49.07;101588.25;5055866;28;20049;-56
2023/08/12 02:10:18;;;;;;;2.80;1.40;;;;;;;26.57;48.91;101584.53;5055399;28;20045;-56
2023/08/12 02:12:45;;;;;;;2.65;1.60;;;;;;;26.57;49.08;101584.53;5054714;28;20057;-56
2023/08/12 02:15:13;;;;;;;1.70;0.90;;;;;;;26.56;48.82;101583.69;5054164;28;20056;-56
2023/08/12 02:17:40;;;;;;;2.17;1.40;;;;;;;26.56;49.06;101580.13;5054271;28;20065;-56
2023/08/12 02:20:08;;;;;;;1.75;1.08;;;;;;;26.55;48.99;101581.97;5055306;28;20045;-56
2023/08/12 02:22:36;;;;;;;2.08;1.10;;;;;;;26.58;48.87;101592.53;5053162;28;20049;-56
2023/08/12 02:25:04;;;;;;;2.13;1.30;;;;;;;26.56;49.10;101582.81;5055537;28;20047;-56
2023/08/12 02:27:31;;;;;;;2.05;1.10;;;;;;;26.56;49.06;101580.97;5055184;28;20052;-58
2023/08/12 02:29:59;;;;;;;2.55;1.25;;;;;;;26.56;48.96;101580.97;5055045;28;20052;-58
2023/08/12 02:32:27;;;;;;;2.65;1.60;;;;;;;26.56;48.98;101578.25;5052962;28;20056;-58
2023/08/12 02:34:54;;;;;;;2.00;1.20;;;;;;;26.57;48.87;101579.09;5053166;28;20041;-58
2023/08/12 02:37:22;;;;;;;2.92;1.20;;;;;;;26.55;49.17;101581.97;5053933;28;20517;-56
2023/08/12 02:39:49;;;;;;;2.42;1.30;;;;;;;26.56;49.05;101583.69;5053124;28;20483;-56
2023/08/12 02:42:16;;;;;;;2.35;1.35;;;;;;;26.56;48.90;101583.69;5054153;28;20426;-56
2023/08/12 02:44:44;;;;;;;2.00;1.15;;;;;;;26.57;49.13;101579.09;5054759;28;20045;-56
2023/08/12 02:47:11;;;;;;;1.73;1.10;;;;;;;26.56;49.12;101575.53;5053358;28;20048;-58
2023/08/12 02:49:39;;;;;;;2.03;1.23;;;;;;;26.55;49.25;101568.41;5054715;28;20048;-58
2023/08/12 02:52:07;;;;;;;1.75;1.08;;;;;;;26.56;49.17;101575.53;5052723;28;20578;-58
2023/08/12 02:54:34;;;;;;;2.50;1.55;;;;;;;26.56;48.86;101574.69;5054502;28;20053;-58
2023/08/12 02:57:01;;;;;;;1.77;1.08;;;;;;;26.56;48.92;101580.97;5054622;28;20147;-57
2023/08/12 02:59:29;;;;;;;2.70;1.42;;;;;;;26.57;49.09;101579.09;5054459;28;20041;-56
2023/08/12 03:01:57;;;;;;;2.80;1.67;;;;;;;26.57;49.02;101579.09;5053097;28;20384;-56
2023/08/12 03:04:24;;;;;;;2.65;1.30;;;;;;;26.56;49.11;101571.97;5054378;28;20100;-56
2023/08/12 03:06:52;;;;;;;2.75;1.52;;;;;;;26.55;49.08;101571.13;5054216;28;20384;-58
2023/08/12 03:09:20;;;;;;;2.28;1.38;;;;;;;26.55;49.00;101570.28;5053181;28;20487;-58
2023/08/12 03:11:48;;;;;;;2.40;1.50;;;;;;;26.56;49.21;101575.53;5052637;28;20076;-58
2023/08/12 03:14:16;;;;;;;2.40;1.27;;;;;;;26.57;49.13;101573.66;5046105;28;20060;-58
2023/08/12 03:16:44;;;;;;;2.15;1.55;;;;;;;26.56;49.00;101571.97;5034349;28;20057;-58
2023/08/12 03:19:12;;;;;;;2.42;1.02;;;;;;;26.56;49.18;101572.81;5033943;28;20450;-58
2023/08/12 03:21:40;;;;;;;3.10;1.70;;;;;;;26.56;49.08;101572.81;5034714;28;20045;-58
2023/08/12 03:24:07;;;;;;;2.53;1.60;;;;;;;26.56;49.00;101577.41;5034138;28;20132;-58
2023/08/12 03:26:35;;;;;;;2.15;1.60;;;;;;;26.57;49.07;101579.94;5034790;28;20060;-58
2023/08/12 03:29:02;;;;;;;2.20;1.38;;;;;;;26.56;48.82;101577.41;5017963;28;20072;-58
2023/08/12 03:31:30;;;;;;;2.50;1.50;;;;;;;26.55;49.06;101576.53;5052292;28;20392;-58
2023/08/12 03:33:58;;;;;;;2.95;1.40;;;;;;;26.56;49.05;101578.25;5053696;28;20045;-58
2023/08/12 03:36:29;;;;;;;2.65;1.80;;;;;;;26.57;48.97;101579.09;5052513;28;20072;-58
2023/08/12 03:38:56;;;;;;;2.55;1.42;;;;;;;26.56;49.06;101578.25;5053459;28;20037;-59
2023/08/12 03:41:26;;;;;;;1.88;1.27;;;;;;;26.56;49.05;101582.81;5033843;28;20053;-58
2023/08/12 03:43:57;;;;;;;2.63;1.55;;;;;;;26.55;49.21;101590.13;5033937;28;20057;-58
2023/08/12 03:46:25;;;;;;;2.53;1.70;;;;;;;26.57;49.11;101584.53;5033792;28;20057;-58
2023/08/12 03:48:53;;;;;;;3.88;1.98;;;;;;;26.56;48.96;101585.53;5034294;28;20052;-58
2023/08/12 03:51:21;;;;;;;2.10;1.35;;;;;;;26.56;49.12;101585.53;5035283;28;20049;-58
2023/08/12 03:53:49;;;;;;;2.58;1.60;;;;;;;26.57;49.04;101593.50;5034967;28;20510;-58
2023/08/12 03:56:17;;;;;;;2.55;1.55;;;;;;;26.55;49.11;101590.13;5034746;28;20053;-58
2023/08/12 03:58:44;;;;;;;2.17;1.35;;;;;;;26.55;49.04;101586.56;5034186;28;20052;-58
2023/08/12 04:01:12;;;;;;;2.17;1.33;;;;;;;26.56;49.03;101589.09;5035180;28;20408;-58
2023/08/12 04:03:39;;;;;;;2.00;1.30;;;;;;;26.56;48.99;101580.13;5034757;28;20041;-58
2023/08/12 04:06:07;;;;;;;2.92;1.63;;;;;;;26.56;49.10;101578.25;5034355;28;20045;-58
2023/08/12 04:08:34;;;;;;;2.30;1.50;;;;;;;26.55;48.97;101583.84;5035007;28;20053;-58
2023/08/12 04:11:02;;;;;;;2.38;1.40;;;;;;;26.55;49.09;101573.84;5033431;28;20049;-58
2023/08/12 04:13:29;;;;;;;2.28;1.50;;;;;;;26.56;49.03;101575.53;5034328;28;20048;-58
2023/08/12 04:15:57;;;;;;;2.15;1.38;;;;;;;26.56;48.98;101575.53;5033278;28;20049;-58
2023/08/12 04:18:25;;;;;;;2.40;1.65;;;;;;;26.55;48.93;101570.28;5033711;28;20060;-56
2023/08/12 04:20:53;;;;;;;2.50;1.35;;;;;;;26.55;49.03;101579.25;5034059;28;20041;-56
2023/08/12 04:23:21;;;;;;;2.35;1.35;;;;;;;26.55;49.21;101581.97;5034177;28;20053;-56
2023/08/12 04:25:49;;;;;;;2.60;1.52;;;;;;;26.55;48.88;101576.53;5032768;28;20045;-56
2023/08/12 04:28:18;;;;;;;2.40;1.60;;;;;;;26.55;49.06;101571.13;5041481;28;20523;-56
2023/08/12 04:30:52;;;;;;;2.33;1.35;;;;;;;26.56;49.19;101574.69;5051454;28;20045;-56
2023/08/12 04:33:21;;;;;;;2.78;1.65;;;;;;;26.55;48.99;101579.25;5051014;28;20388;-56
2023/08/12 04:35:50;;;;;;;2.28;1.48;;;;;;;26.55;49.21;101579.25;5051216;28;20049;-56
2023/08/12 04:38:18;;;;;;;3.63;1.85;;;;;;;26.55;48.92;101581.97;5049880;28;20053;-58
2023/08/12 04:40:48;;;;;;;2.78;1.60;;;;;;;26.55;48.93;101581.97;5051641;28;20115;-58
2023/08/12 04:43:17;;;;;;;2.30;1.40;;;;;;;26.55;48.97;101581.97;5051267;28;20060;-58
2023/08/12 04:45:47;;;;;;;2.70;1.50;;;;;;;26.55;49.17;101576.53;5052662;28;20053;-58
2023/08/12 04:48:17;;;;;;;2.00;1.17;;;;;;;26.55;49.07;101578.41;5032619;28;20045;-58
2023/08/12 04:50:45;;;;;;;2.55;1.67;;;;;;;26.53;49.15;101581.28;5034120;28;20053;-58
2023/08/12 04:53:12;;;;;;;2.38;1.40;;;;;;;26.54;49.19;101580.28;5032772;28;20045;-58
2023/08/12 04:55:40;;;;;;;2.60;1.77;;;;;;;26.55;48.99;101576.53;5034209;28;20041;-58
2023/08/12 04:58:09;;;;;;;2.45;1.67;;;;;;;26.54;49.20;101577.56;5049372;28;20053;-56
2023/08/12 05:00:37;;;;;;;2.60;1.80;;;;;;;26.54;49.11;101582.16;5033693;28;20041;-56
2023/08/12 05:03:04;;;;;;;2.65;1.60;;;;;;;26.54;49.29;101580.28;5033832;28;20056;-56
2023/08/12 05:05:32;;;;;;;2.45;1.40;;;;;;;26.55;49.16;101586.56;5033155;28;20053;-56
2023/08/12 05:07:59;;;;;;;3.10;1.67;;;;;;;26.55;49.10;101581.97;5032550;28;20504;-58
2023/08/12 05:10:27;;;;;;;2.33;1.35;;;;;;;26.54;49.08;101583.00;5032590;28;20056;-58
2023/08/12 05:12:57;;;;;;;2.47;1.40;;;;;;;26.54;49.08;101580.28;5032558;28;20504;-58
2023/08/12 05:15:26;;;;;;;2.13;1.15;;;;;;;26.54;49.17;101580.28;5033101;28;20060;-58
2023/08/12 05:17:54;;;;;;;3.55;1.38;;;;;;;26.54;49.37;101580.28;5032680;28;20064;-56
2023/08/12 05:20:23;;;;;;;2.40;1.38;;;;;;;26.54;49.14;101571.28;5032437;28;20057;-56
2023/08/12 05:22:50;;;;;;;2.08;1.30;;;;;;;26.54;49.30;101574.84;5032480;28;20435;-56
2023/08/12 05:25:17;;;;;;;2.63;1.50;;;;;;;26.55;49.16;101575.69;5032911;28;20057;-56
2023/08/12 05:27:45;;;;;;;3.53;1.60;;;;;;;26.54;49.20;101574.00;5033844;28;20045;-58
2023/08/12 05:30:13;;;;;;;2.83;1.45;;;;;;;26.54;49.33;101584.88;5033573;28;20046;-58
2023/08/12 05:32:40;;;;;;;2.25;1.45;;;;;;;26.55;49.38;101584.69;5033300;28;20518;-58
2023/08/12 05:35:08;;;;;;;3.15;1.95;;;;;;;26.54;49.46;101574.84;5033500;28;20054;-58
2023/08/12 05:37:35;;;;;;;2.63;1.40;;;;;;;26.54;49.09;101585.72;5033348;28;20399;-56
2023/08/12 05:40:07;;;;;;;3.22;1.48;;;;;;;26.54;49.12;101583.00;5033647;28;20511;-56
2023/08/12 05:42:36;;;;;;;;;;;;;;;26.52;49.24;101595.88;5037484;28;20049;-56
2023/08/12 05:45:04;;;;;;;3.15;2.10;;;;;;;26.54;49.27;101588.44;5051750;28;19928;-56
2023/08/12 05:47:34;;;;;;;2.38;1.33;;;;;;;26.54;49.42;101598.44;5052887;28;20040;-56
2023/08/12 05:50:02;;;;;;;2.47;1.70;;;;;;;26.54;49.41;101588.44;5054792;28;20045;-56
2023/08/12 05:52:29;;;;;;;2.20;1.50;;;;;;;26.53;49.22;101581.28;5056099;28;20048;-56
2023/08/12 05:54:57;;;;;;;2.38;1.58;;;;;;;26.53;49.29;101578.56;5055351;28;20045;-56
2023/08/12 05:57:24;;;;;;;5.35;2.00;;;;;;;26.53;49.17;101584.00;5054755;28;20049;-58
2023/08/12 05:59:55;;;;;;;2.80;1.83;;;;;;;26.53;49.36;101584.00;5056049;28;20053;-58
2023/08/12 06:02:23;;;;;;;2.35;1.60;;;;;;;26.53;49.18;101580.44;5055823;28;20048;-58
2023/08/12 06:04:50;;;;;;;3.50;1.60;;;;;;;26.54;49.31;101574.84;5055004;28;20053;-58
2023/08/12 06:07:18;;;;;;;3.13;1.63;;;;;;;26.53;49.26;101575.84;5055687;28;20060;-58
2023/08/12 06:09:45;;;;;;;2.58;1.40;;;;;;;26.53;49.11;101575.84;5055877;28;20049;-58
2023/08/12 06:12:13;;;;;;;2.38;1.45;;;;;;;26.53;49.54;101578.56;5055510;28;20040;-58
2023/08/12 06:14:40;;;;;;;2.95;1.70;;;;;;;26.54;49.39;101577.56;5054716;28;20056;-58
2023/08/12 06:17:08;;;;;;;2.22;1.33;;;;;;;26.54;49.26;101580.28;5055977;28;20052;-56
2023/08/12 06:19:35;;;;;;;2.22;1.60;;;;;;;26.53;49.26;101575.84;5055311;28;20049;-56
2023/08/12 06:22:03;;;;;;;2.30;1.40;;;;;;;26.54;49.47;101584.88;5055275;28;20044;-56
2023/08/12 06:24:30;;;;;;;2.30;1.42;;;;;;;26.54;49.31;101591.16;5054614;28;20042;-56
2023/08/12 06:26:58;;;;;;;2.38;1.40;;;;;;;26.54;49.25;101585.72;5055144;28;20047;-57
2023/08/12 06:29:26;;;;;;;2.47;1.50;;;;;;;26.53;49.41;101594.84;5055138;28;20049;-58
2023/08/12 06:31:53;;;;;;;2.35;1.45;;;;;;;26.53;49.36;101594.84;5055269;28;20049;-58
2023/08/12 06:34:21;;;;;;;2.42;1.55;;;;;;;26.54;49.44;101587.59;5054245;28;20064;-58
2023/08/12 06:36:48;;;;;;;3.20;1.70;;;;;;;26.54;49.56;101588.44;5055472;28;20056;-60
2023/08/12 06:39:16;;;;;;;2.58;1.73;;;;;;;26.54;49.39;101591.16;5055558;28;20430;-58
2023/08/12 06:41:43;;;;;;;2.42;1.40;;;;;;;26.56;49.52;101593.69;5054892;28;20506;-58
2023/08/12 06:44:11;;;;;;;2.55;1.60;;;;;;;26.54;49.50;101591.16;5054912;28;20061;-58
2023/08/12 06:46:38;;;;;;;2.40;1.65;;;;;;;26.54;49.44;101593.88;5055280;28;20418;-58
2023/08/12 06:49:07;;;;;;;2.30;1.55;;;;;;;26.54;49.29;101596.56;5054784;28;20407;-56
2023/08/12 06:51:34;;;;;;;2.65;1.55;;;;;;;26.55;49.46;101586.56;5053708;28;20044;-56
2023/08/12 06:54:02;;;;;;;2.00;1.33;;;;;;;26.55;49.39;101597.44;5054006;28;20045;-56
2023/08/12 06:56:29;;;;;;;2.38;1.73;;;;;;;26.55;49.30;101598.28;5054951;28;20112;-56
2023/08/12 06:58:57;;;;;;;3.42;1.85;;;;;;;26.56;49.45;101601.84;5039936;28;20045;-56
2023/08/12 07:01:25;;;;;;;2.38;1.50;;;;;;;26.56;49.40;101599.13;5035093;28;20392;-57
2023/08/12 07:03:55;;;;;;;3.03;1.60;;;;;;;26.55;49.42;101601.00;5054271;28;20104;-58
2023/08/12 07:06:22;;;;;;;2.50;1.50;;;;;;;26.55;49.45;101601.00;5054954;28;20045;-59
2023/08/12 07:08:50;;;;;;;2.88;1.80;;;;;;;26.56;49.61;101604.56;5054970;28;20045;-58
2023/08/12 07:11:17;;;;;;;2.47;1.60;;;;;;;26.55;49.40;101595.56;5054482;28;20037;-57
2023/08/12 07:13:46;;;;;;;2.97;1.65;;;;;;;26.55;49.31;101603.69;5053902;28;20045;-57
2023/08/12 07:16:13;;;;;;;2.97;1.80;;;;;;;26.55;49.48;101603.69;5054902;28;20053;-57
2023/08/12 07:18:41;;;;;;;2.25;1.65;;;;;;;26.56;49.59;101599.97;5054450;28;20072;-59
2023/08/12 07:21:08;;;;;;;2.95;1.50;;;;;;;26.54;49.39;101599.28;5054338;28;20483;-57
2023/08/12 07:23:36;;;;;;;2.28;1.52;;;;;;;26.56;49.44;101604.56;5054523;28;20048;-57
2023/08/12 07:26:03;;;;;;;3.13;1.67;;;;;;;26.57;49.52;101600.81;5054333;28;20411;-57
2023/08/12 07:28:31;;;;;;;2.70;1.80;;;;;;;26.55;49.38;101592.84;5054296;28;20060;-57
2023/08/12 07:31:01;;;;;;;2.38;1.42;;;;;;;26.56;49.44;101596.41;5054942;28;20386;-56
2023/08/12 07:33:28;;;;;;;2.20;1.40;;;;;;;26.56;49.56;101594.53;5035481;28;20061;-57
2023/08/12 07:35:56;;;;;;;2.72;1.88;;;;;;;26.56;49.56;101604.56;5034942;28;20050;-57
2023/08/12 07:38:23;;;;;;;2.80;1.80;;;;;;;26.55;49.43;101592.84;5035118;28;20053;-59
2023/08/12 07:40:51;;;;;;;2.70;1.35;;;;;;;26.55;49.40;101595.56;5034959;28;20049;-58
2023/08/12 07:43:18;;;;;;;2.75;1.52;;;;;;;26.56;49.63;101597.25;5034336;28;20041;-59
2023/08/12 07:45:51;;;;;;;3.00;1.70;;;;;;;26.57;49.54;101598.94;5034369;28;20052;-59
2023/08/12 07:48:34;;;;;;;2.38;1.45;;;;;;;26.56;49.63;101593.69;5034546;28;20049;-58
2023/08/12 07:51:02;;;;;;;2.83;1.65;;;;;;;26.57;49.55;101600.81;5034868;28;20488;-59
2023/08/12 07:53:29;;;;;;;2.47;1.55;;;;;;;26.57;49.47;101588.09;5034539;28;20052;-59
2023/08/12 07:55:57;;;;;;;2.33;1.40;;;;;;;26.56;49.45;101590.97;5034402;28;20462;-59
2023/08/12 07:58:24;;;;;;;2.80;1.80;;;;;;;26.56;49.65;101583.69;5034068;28;20148;-56
2023/08/12 08:00:54;;;;;;;2.38;1.70;;;;;;;26.57;49.41;101585.38;5033750;28;20045;-57
2023/08/12 08:03:22;;;;;;;2.88;1.60;;;;;;;26.57;49.46;101584.53;5034027;28;20052;-56
2023/08/12 08:05:49;;;;;;;3.40;1.80;;;;;;;26.57;49.59;101585.38;5034145;28;20046;-57
2023/08/12 08:08:18;;;;;;;2.28;1.50;;;;;;;26.57;49.67;101584.53;5034053;28;20050;-57
2023/08/12 08:10:45;;;;;;;3.00;1.80;;;;;;;26.57;49.72;101584.53;5033869;28;20045;-56
2023/08/12 08:13:13;;;;;;;2.55;1.65;;;;;;;26.57;49.51;101584.53;5032971;28;20495;-57
2023/08/12 08:15:40;;;;;;;2.63;1.63;;;;;;;26.58;49.67;101589.81;5033794;28;20041;-57
2023/08/12 08:18:07;;;;;;;2.15;1.45;;;;;;;26.57;49.76;101590.81;5032185;28;20491;-56
2023/08/12 08:20:35;;;;;;;2.28;1.55;;;;;;;26.57;49.74;101588.09;5033562;28;20068;-57
2023/08/12 08:23:02;;;;;;;2.33;1.30;;;;;;;26.59;49.69;101585.22;5033950;28;20052;-56
2023/08/12 08:25:30;;;;;;;2.30;1.55;;;;;;;26.59;49.62;101590.66;5033934;28;20053;-56
2023/08/12 08:27:57;;;;;;;2.35;1.58;;;;;;;26.58;49.65;101587.09;5033584;28;20053;-57
2023/08/12 08:30:25;;;;;;;2.22;1.40;;;;;;;26.59;49.46;101587.94;5033417;28;20064;-56
2023/08/12 08:32:53;;;;;;;3.25;1.73;;;;;;;26.59;49.55;101587.94;5033538;28;20049;-57
2023/08/12 08:35:20;;;;;;;1.95;1.27;;;;;;;26.60;49.49;101590.47;5033344;28;20049;-56
2023/08/12 08:37:48;;;;;;;2.72;1.83;;;;;;;26.58;49.47;101592.53;5048912;28;20053;-59
2023/08/12 08:40:15;;;;;;;2.78;1.70;;;;;;;26.59;49.25;101594.22;5052223;28;20411;-59
2023/08/12 08:42:51;;;;;;;2.70;1.90;;;;;;;26.60;49.72;101592.34;5052636;28;20041;-59
2023/08/12 08:45:21;;;;;;;2.03;1.40;;;;;;;26.59;49.67;101596.94;5053320;28;20060;-58
2023/08/12 08:47:51;;;;;;;2.90;1.70;;;;;;;26.60;49.73;101595.91;5052871;28;20506;-58
2023/08/12 08:50:20;;;;;;;2.65;1.60;;;;;;;26.60;49.49;101590.47;5052928;28;20064;-59
2023/08/12 08:52:49;;;;;;;2.67;1.80;;;;;;;26.61;49.54;101597.63;5051657;28;20049;-58
2023/08/12 08:55:18;;;;;;;2.33;1.40;;;;;;;26.60;49.40;101598.63;5052808;28;20049;-59
2023/08/12 08:57:49;;;;;;;2.35;1.52;;;;;;;26.60;49.69;101595.91;5052254;28;20495;-59
2023/08/12 09:00:17;;;;;;;2.33;1.55;;;;;;;26.60;49.59;101590.47;5052581;28;20048;-58
2023/08/12 09:02:49;;;;;;;2.30;1.42;;;;;;;26.60;49.70;101586.91;5052444;28;20045;-59
2023/08/12 09:05:18;;;;;;;2.38;1.70;;;;;;;26.61;49.52;101588.63;5052743;28;20044;-59
2023/08/12 09:07:47;;;;;;;2.88;1.80;;;;;;;26.60;49.69;101581.50;5051936;28;20442;-58
2023/08/12 09:10:17;;;;;;;2.40;1.80;;;;;;;26.61;49.85;101586.75;5052491;28;20056;-58
2023/08/12 09:12:46;;;;;;;2.47;1.80;;;;;;;26.61;49.68;101586.75;5052461;28;20060;-58
2023/08/12 09:15:16;;;;;;;2.55;1.83;;;;;;;26.62;49.58;101585.75;5052336;28;20585;-58
2023/08/12 09:17:43;;;;;;;2.08;1.52;;;;;;;26.62;49.70;101588.47;5034080;28;20056;-56
2023/08/12 09:20:11;;;;;;;2.60;1.55;;;;;;;26.62;49.68;101579.47;5033650;28;20045;-57
2023/08/12 09:22:41;;;;;;;2.35;1.30;;;;;;;26.61;49.47;101586.75;5033492;28;20119;-57
2023/08/12 09:25:09;;;;;;;1.90;1.25;;;;;;;26.63;49.74;101583.88;5036745;28;20057;-56
2023/08/12 09:27:40;;;;;;;2.70;1.83;;;;;;;26.61;49.56;101581.31;5041792;28;20053;-56
2023/08/12 09:30:08;;;;;;;2.72;1.52;;;;;;;26.63;49.49;101581.19;5056877;28;20049;-58
2023/08/12 09:32:38;;;;;;;2.28;1.40;;;;;;;26.62;49.47;101574.91;5056565;28;20041;-58
2023/08/12 09:35:16;;;;;;;1.73;1.05;;;;;;;26.63;49.69;101582.03;5055658;28;20052;-58
2023/08/12 09:37:43;;;;;;;2.53;1.60;;;;;;;26.62;49.57;101577.63;5057028;28;20479;-58
2023/08/12 09:40:11;;;;;;;3.22;2.13;;;;;;;26.62;49.64;101577.63;5056522;28;20045;-58
2023/08/12 09:42:45;;;;;;;2.50;1.75;;;;;;;26.62;49.49;101580.31;5056146;28;20048;-58
2023/08/12 09:45:13;;;;;;;2.75;1.65;;;;;;;26.63;49.64;101583.88;5056023;28;20053;-59
2023/08/12 09:47:43;;;;;;;2.28;1.73;;;;;;;26.62;49.75;101585.75;5056069;28;20045;-56
2023/08/12 09:50:10;;;;;;;2.30;1.48;;;;;;;26.62;49.68;101580.31;5056506;28;20041;-56
2023/08/12 09:52:38;;;;;;;2.65;1.48;;;;;;;26.63;49.58;101573.03;5055672;28;20044;-56
2023/08/12 09:55:08;;;;;;;3.35;1.85;;;;;;;26.64;49.53;101574.72;5036783;28;20049;-57
2023/08/12 09:57:38;;;;;;;1.95;1.35;;;;;;;26.63;49.49;101578.47;5036877;28;20407;-58
2023/08/12 10:00:11;;;;;;;2.78;1.70;;;;;;;26.64;49.83;101577.44;5037107;28;20053;-59
2023/08/12 10:02:45;;;;;;;3.22;1.55;;;;;;;26.63;49.60;101573.03;5037783;28;20045;-59
2023/08/12 10:05:20;;;;;;;2.25;1.42;;;;;;;26.63;49.61;101568.44;5037380;28;20057;-59
2023/08/12 10:07:48;;;;;;;2.60;1.95;;;;;;;26.64;49.79;101569.28;5037048;28;20049;-58
2023/08/12 10:10:15;;;;;;;2.60;1.65;;;;;;;26.63;49.59;101567.59;5037308;28;20048;-59
2023/08/12 10:12:43;;;;;;;3.03;1.80;;;;;;;26.62;49.86;101564.03;5036539;28;20048;-56
2023/08/12 10:15:11;;;;;;;2.63;1.90;;;;;;;26.64;49.68;101558.44;5035952;28;20057;-56
2023/08/12 10:17:41;;;;;;;2.08;1.27;;;;;;;26.63;49.75;101557.56;5036354;28;20416;-59
2023/08/12 10:20:19;;;;;;;2.80;1.88;;;;;;;26.63;49.72;101560.28;5035999;28;20057;-56
2023/08/12 10:22:47;;;;;;;2.70;1.70;;;;;;;26.63;49.61;101551.31;5036132;28;20045;-56
2023/08/12 10:25:17;;;;;;;2.90;1.85;;;;;;;26.64;49.37;101547.56;5035387;28;20105;-56
2023/08/12 10:27:45;;;;;;;2.53;1.60;;;;;;;26.64;49.68;101542.13;5035753;28;20045;-57
2023/08/12 10:30:13;;;;;;;2.30;1.70;;;;;;;26.64;49.76;101539.41;5035495;28;20045;-56
2023/08/12 10:32:41;;;;;;;2.55;1.65;;;;;;;26.65;49.78;101540.25;5035397;28;20392;-56
2023/08/12 10:35:09;;;;;;;2.53;1.90;;;;;;;26.65;49.38;101538.38;5034530;28;20057;-57
2023/08/12 10:37:37;;;;;;;2.50;1.65;;;;;;;26.65;49.63;101532.13;5035950;28;20049;-58
2023/08/12 10:40:08;;;;;;;2.40;1.52;;;;;;;26.65;49.64;101530.25;5035329;28;20053;-59
2023/08/12 10:42:46;;;;;;;3.17;1.70;;;;;;;26.65;49.54;101522.09;5034696;28;20045;-59
2023/08/12 10:45:16;;;;;;;2.45;1.80;;;;;;;26.65;49.72;101522.09;5035198;28;20042;-59
2023/08/12 10:48:00;;;;;;;2.42;1.50;;;;;;;26.66;49.76;101521.09;5035633;28;20041;-56
2023/08/12 10:50:27;;;;;;;2.33;1.80;;;;;;;26.65;49.70;101508.50;5034945;28;20049;-56
2023/08/12 10:52:55;;;;;;;2.55;1.75;;;;;;;26.65;49.64;101510.38;5034822;28;20099;-56
2023/08/12 10:55:25;;;;;;;2.35;1.52;;;;;;;26.66;49.98;101506.66;5035145;28;20046;-57
2023/08/12 10:57:54;;;;;;;2.58;1.48;;;;;;;26.65;49.79;101502.22;5035399;28;20064;-56
2023/08/12 11:00:25;;;;;;;2.15;1.45;;;;;;;26.66;49.56;101507.53;5034337;28;20056;-57
2023/08/12 11:02:54;;;;;;;2.83;1.85;;;;;;;26.65;49.59;101496.81;5035409;28;20044;-59
2023/08/12 11:05:24;;;;;;;2.08;1.42;;;;;;;26.66;49.72;101493.94;5035769;28;20047;-59
2023/08/12 11:08:03;;;;;;;2.40;1.60;;;;;;;26.66;49.61;101493.06;5035602;28;20053;-58
2023/08/12 11:10:32;;;;;;;2.42;1.60;;;;;;;26.65;49.54;101489.50;5036269;28;20041;-59
2023/08/12 11:13:02;;;;;;;2.58;1.33;;;;;;;26.65;49.39;101489.50;5035839;28;20426;-58
2023/08/12 11:15:32;;;;;;;2.83;1.83;;;;;;;26.66;49.75;101485.78;5035999;28;20056;-59
2023/08/12 11:18:14;;;;;;;2.60;1.55;;;;;;;26.67;49.62;101486.66;5035539;28;20041;-56
2023/08/12 11:20:42;;;;;;;3.10;1.80;;;;;;;26.66;49.70;101482.19;5035610;28;20537;-57
2023/08/12 11:23:10;;;;;;;2.55;1.60;;;;;;;26.66;49.57;101480.38;5036530;28;20049;-56
2023/08/12 11:25:40;;;;;;;2.35;1.50;;;;;;;26.66;49.63;101484.91;5035277;28;20411;-56
2023/08/12 11:28:08;;;;;;;2.92;1.70;;;;;;;26.66;49.74;101472.22;5035682;28;20053;-59
2023/08/12 11:30:36;;;;;;;3.60;1.50;;;;;;;26.66;49.73;101465.91;5035159;28;20052;-58
2023/08/12 11:33:04;;;;;;;2.25;1.48;;;;;;;26.66;49.64;101468.63;5034848;28;20045;-59